Tracy, Missouri
Current Conditions -  °F | °C
As of 6:53 AM on Thursday 30 Oct 2014 (Local Time) from KMCI Reporting Station
Scattered Clouds Scattered Clouds  
Wind Chill: 51°   Ceiling: Unl
Heat Index: 51°   Visibility: 10mi
Dew Point: 41°   Wind: 8mph
Humidity: 68%   Direction: 240°WSW
Pressure: 30"   Gusts: NA
Location:  39.3588°N, 94.8136°W
Report Text: KMCI 301153Z 24007KT 10SM SCT100 11/05 A3000 RMK AO2 SLP156 OCNL LTGIC DSNT E T01060050 10122 20072 55009
Loading
Personal Weather Stations






























Interactive Weather Map New forecast layout! Learn more

10-Day Weather Forecast

Advertisements
Track Severe Weather on mobile